Time;durP1;ratioP1;P1;durP2;ratioP2;P2;SDS_P1;SDS_P2;PMS_P1;PMS_P2;Temp;Humidity;BMP_temperature;BMP_pressure;BME280_temperature;BME280_humidity;BME280_pressure;Samples;Min_cycle;Max_cycle;Signal;HPM_P1;HPM_P2
2022/08/25 00:01:03;;;;;;;16.20;7.60;;;19.80;99.90;19.50;101044;;;;562721;255;24205;-80
2022/08/25 00:03:31;;;;;;;17.37;6.60;;;19.80;99.90;19.50;101043;;;;562186;255;24165;-80
2022/08/25 00:05:59;;;;;;;21.27;8.00;;;19.70;99.90;19.50;101052;;;;564200;254;24172;-79
2022/08/25 00:08:27;;;;;;;16.67;7.57;;;19.80;99.90;19.50;101045;;;;563750;255;24187;-78
2022/08/25 00:10:58;;;;;;;13.03;7.33;;;19.80;99.90;19.50;101046;;;;563520;251;24202;-79
2022/08/25 00:13:23;;;;;;;17.27;7.17;;;19.80;99.90;19.60;101043;;;;563070;252;24159;-79
2022/08/25 00:15:51;;;;;;;14.83;7.10;;;19.80;99.90;19.60;101041;;;;563294;251;24159;-80
2022/08/25 00:18:23;;;;;;;11.77;6.60;;;19.80;99.90;19.60;101036;;;;563275;255;24155;-80
2022/08/25 00:20:48;;;;;;;19.70;7.87;;;19.80;99.90;19.60;101033;;;;563176;251;24148;-80
2022/08/25 00:23:16;;;;;;;15.20;7.37;;;19.90;99.90;19.60;101033;;;;563118;255;24166;-80
2022/08/25 00:25:48;;;;;;;20.27;7.30;;;19.90;99.90;19.60;101032;;;;562887;255;23169;-80
2022/08/25 00:28:15;;;;;;;14.77;6.90;;;19.90;99.90;19.60;101031;;;;562573;251;24160;-80
2022/08/25 00:30:41;;;;;;;18.40;7.13;;;19.80;99.90;19.60;101033;;;;562852;255;24152;-80
2022/08/25 00:33:12;;;;;;;8.43;6.87;;;19.80;99.90;19.60;101033;;;;563032;255;23181;-79
2022/08/25 00:35:40;;;;;;;10.17;6.53;;;19.90;99.90;19.60;101027;;;;562618;252;24148;-80
2022/08/25 00:38:05;;;;;;;10.83;6.63;;;19.90;99.90;19.60;101036;;;;562528;252;24180;-80
2022/08/25 00:40:33;;;;;;;11.20;5.57;;;19.90;99.90;19.60;101035;;;;562872;251;24198;-80
2022/08/25 00:43:01;;;;;;;10.37;6.57;;;19.90;99.90;19.60;101031;;;;562758;251;24162;-81
2022/08/25 00:45:28;;;;;;;9.77;6.10;;;19.90;99.90;19.60;101032;;;;562618;251;23195;-79
2022/08/25 00:47:56;;;;;;;11.73;6.07;;;19.80;99.90;19.60;101030;;;;562776;255;24178;-81
2022/08/25 00:50:24;;;;;;;12.00;5.83;;;19.80;99.90;19.60;101026;;;;563003;255;24169;-79
2022/08/25 00:52:52;;;;;;;15.63;6.67;;;19.80;99.90;19.50;101029;;;;562752;251;23194;-79
2022/08/25 00:55:26;;;;;;;10.60;6.17;;;19.80;99.90;19.50;101027;;;;563126;255;24154;-80
2022/08/25 00:58:06;;;;;;;12.10;6.73;;;19.80;99.90;19.50;101027;;;;561986;255;24250;-80
2022/08/25 01:00:33;;;;;;;8.83;5.53;;;19.70;99.90;19.50;101029;;;;562198;255;24182;-80
2022/08/25 01:03:05;;;;;;;10.23;5.87;;;19.70;99.90;19.50;101030;;;;562662;255;24181;-81
2022/08/25 01:05:29;;;;;;;10.33;6.20;;;19.70;99.90;19.40;101031;;;;562528;255;23171;-80
2022/08/25 01:07:58;;;;;;;11.40;5.63;;;19.70;99.90;19.40;101027;;;;562689;255;24170;-80
2022/08/25 01:10:28;;;;;;;8.63;5.03;;;19.60;99.90;19.40;101026;;;;562752;252;24154;-81
2022/08/25 01:12:54;;;;;;;12.50;5.40;;;19.60;99.90;19.40;101039;;;;562559;255;24160;-82
2022/08/25 01:15:21;;;;;;;12.40;6.13;;;19.70;99.90;19.40;101033;;;;562693;252;24246;-81
2022/08/25 01:17:50;;;;;;;6.33;5.10;;;19.70;99.90;19.40;101036;;;;564089;254;23192;-81
2022/08/25 01:20:18;;;;;;;16.33;6.60;;;19.70;99.90;19.40;101031;;;;563552;251;24155;-81
2022/08/25 01:22:49;;;;;;;15.87;6.70;;;19.70;99.90;19.40;101022;;;;563490;251;24223;-81
2022/08/25 01:25:42;;;;;;;11.40;6.43;;;19.60;99.90;19.40;101028;;;;563215;251;24272;-81
2022/08/25 01:28:10;;;;;;;10.20;6.27;;;19.60;99.90;19.40;101033;;;;563284;255;24153;-80
2022/08/25 01:30:38;;;;;;;16.83;7.97;;;19.60;99.90;19.40;101031;;;;563266;255;24186;-80
2022/08/25 01:33:06;;;;;;;14.00;6.87;;;19.60;99.90;19.40;101024;;;;563232;255;24163;-80
2022/08/25 01:35:35;;;;;;;14.63;7.27;;;19.70;99.90;19.40;101031;;;;562991;251;24218;-80
2022/08/25 01:38:03;;;;;;;14.77;7.47;;;19.70;99.90;19.40;101018;;;;563002;255;24156;-81
2022/08/25 01:40:31;;;;;;;13.43;7.07;;;19.70;99.90;19.50;101027;;;;562944;251;24155;-80
2022/08/25 01:43:02;;;;;;;12.97;7.57;;;19.70;99.90;19.50;101027;;;;562969;255;24174;-80
2022/08/25 01:45:30;;;;;;;15.80;8.00;;;19.70;99.90;19.50;101023;;;;562440;255;23215;-80
2022/08/25 01:47:58;;;;;;;12.87;7.90;;;19.70;99.90;19.50;101021;;;;562994;255;24152;-80
2022/08/25 01:50:25;;;;;;;16.53;7.70;;;19.70;99.90;19.40;101021;;;;563027;251;24234;-80
2022/08/25 01:53:08;;;;;;;13.33;8.17;;;19.70;99.90;19.40;101023;;;;562799;255;23173;-80
2022/08/25 01:56:23;;;;;;;12.70;7.17;;;19.70;99.90;19.40;101031;;;;562896;252;25223;-80
2022/08/25 01:58:04;;;;;;;14.70;7.93;;;19.70;99.90;19.40;101024;;;;559019;255;24207;-80
2022/08/25 02:00:32;;;;;;;14.27;8.07;;;19.70;99.90;19.40;101031;;;;562745;255;24169;-80
2022/08/25 02:03:00;;;;;;;17.03;7.93;;;19.70;99.90;19.40;101030;;;;562803;255;24221;-80
2022/08/25 02:05:28;;;;;;;14.87;8.00;;;19.70;99.90;19.40;101022;;;;562795;255;24177;-80
2022/08/25 02:07:56;;;;;;;13.80;6.87;;;19.60;99.90;19.40;101017;;;;562760;251;24169;-80
2022/08/25 02:10:24;;;;;;;11.20;8.33;;;19.60;99.90;19.40;101019;;;;562768;255;24155;-80
2022/08/25 02:12:51;;;;;;;12.97;7.77;;;19.70;99.90;19.40;101017;;;;562763;255;24170;-79
2022/08/25 02:15:19;;;;;;;9.73;8.00;;;19.70;99.90;19.40;101010;;;;562796;255;24157;-80
2022/08/25 02:17:48;;;;;;;15.77;8.13;;;19.70;99.90;19.40;101011;;;;562759;251;24157;-80
2022/08/25 02:20:16;;;;;;;13.10;7.43;;;19.70;99.90;19.40;101008;;;;563005;255;24166;-80
2022/08/25 02:22:47;;;;;;;13.60;8.47;;;19.70;99.90;19.50;101018;;;;562760;255;24177;-80
2022/08/25 02:25:12;;;;;;;15.30;8.20;;;19.70;99.90;19.60;101020;;;;560529;252;24152;-80
2022/08/25 02:27:40;;;;;;;12.77;8.30;;;19.90;99.90;19.70;101014;;;;553448;254;24144;-80
2022/08/25 02:30:12;;;;;;;10.13;8.50;;;19.90;99.90;19.80;101015;;;;553772;255;24162;-79
2022/08/25 02:32:38;;;;;;;15.87;9.23;;;20.00;99.90;19.80;101021;;;;561413;255;24164;-80
2022/08/25 02:35:05;;;;;;;14.00;8.60;;;20.10;99.90;19.90;101020;;;;553447;255;24156;-80
2022/08/25 02:37:32;;;;;;;13.67;8.67;;;20.10;99.90;19.90;101026;;;;553162;255;24180;-80
2022/08/25 02:40:00;;;;;;;10.50;8.30;;;20.20;99.90;20.00;101022;;;;553299;254;24156;-79
2022/08/25 02:42:28;;;;;;;13.80;8.83;;;20.20;99.90;20.10;101029;;;;553192;255;24131;-80
2022/08/25 02:44:56;;;;;;;13.33;9.50;;;20.30;99.90;20.10;101023;;;;553266;255;24182;-80
2022/08/25 02:47:24;;;;;;;13.27;9.43;;;20.30;99.90;20.10;101017;;;;553016;255;23161;-80
2022/08/25 02:49:52;;;;;;;23.57;9.80;;;20.40;99.90;20.20;101021;;;;553270;255;23165;-80
2022/08/25 02:52:20;;;;;;;16.77;9.20;;;20.40;99.90;20.20;101023;;;;552958;255;23196;-80
2022/08/25 02:54:48;;;;;;;12.23;8.93;;;20.40;99.90;20.20;101016;;;;553447;255;24121;-81
2022/08/25 02:57:16;;;;;;;19.13;8.63;;;20.50;99.90;20.30;101008;;;;553419;255;24171;-80
2022/08/25 02:59:47;;;;;;;16.97;10.27;;;20.50;99.90;20.30;101009;;;;553429;255;23174;-80
2022/08/25 03:02:17;;;;;;;14.17;8.30;;;20.50;99.90;20.30;101005;;;;553328;255;24135;-79
2022/08/25 03:04:44;;;;;;;17.33;8.50;;;20.50;99.90;20.30;101001;;;;552870;255;24135;-80
2022/08/25 03:07:12;;;;;;;10.47;7.80;;;20.50;99.90;20.20;100999;;;;552811;255;23330;-80
2022/08/25 03:09:37;;;;;;;13.57;8.97;;;20.50;99.90;20.20;100998;;;;552747;255;23207;-79
2022/08/25 03:12:05;;;;;;;13.77;8.00;;;20.40;99.90;20.20;100995;;;;553098;255;24190;-79
2022/08/25 03:14:33;;;;;;;8.90;7.50;;;20.40;99.90;20.10;100994;;;;561293;255;25223;-80
2022/08/25 03:17:01;;;;;;;17.83;8.43;;;20.40;99.90;20.20;101000;;;;553094;255;24146;-81
2022/08/25 03:19:31;;;;;;;10.90;8.67;;;20.40;99.90;20.20;101004;;;;553124;255;24178;-81
2022/08/25 03:21:58;;;;;;;9.93;7.87;;;20.40;99.90;20.20;100995;;;;552887;255;24242;-80
2022/08/25 03:24:27;;;;;;;15.00;7.67;;;20.40;99.90;20.20;100996;;;;553096;255;23255;-81
2022/08/25 03:26:55;;;;;;;9.77;7.37;;;20.40;99.90;20.20;100997;;;;552668;255;23172;-80
2022/08/25 03:29:23;;;;;;;10.23;6.80;;;20.40;99.90;20.10;100995;;;;560930;255;23165;-80
2022/08/25 03:31:51;;;;;;;10.60;7.00;;;20.30;99.90;20.10;100999;;;;552585;255;24143;-81
2022/08/25 03:34:22;;;;;;;10.37;7.50;;;20.30;99.90;20.00;100993;;;;552757;255;23178;-80
2022/08/25 03:36:47;;;;;;;13.80;7.17;;;20.30;99.90;20.00;100989;;;;552534;255;24198;-80
2022/08/25 03:39:18;;;;;;;9.20;7.50;;;20.20;99.90;20.00;100987;;;;553440;254;24182;-79
2022/08/25 03:41:46;;;;;;;11.43;7.90;;;20.20;99.90;19.90;100984;;;;553641;255;23176;-80
2022/08/25 03:44:11;;;;;;;12.63;7.63;;;20.20;99.90;19.90;100977;;;;553284;255;24140;-79
2022/08/25 03:46:47;;;;;;;16.43;8.27;;;20.10;99.90;19.90;100978;;;;553476;255;24164;-80
2022/08/25 03:49:15;;;;;;;15.07;7.93;;;20.10;99.90;19.80;100981;;;;553371;255;24148;-81
2022/08/25 03:51:44;;;;;;;14.60;8.07;;;20.00;99.90;19.80;100986;;;;552985;255;24142;-80
2022/08/25 03:54:14;;;;;;;15.83;8.33;;;20.00;99.90;19.80;100989;;;;553328;255;23207;-80
2022/08/25 03:56:39;;;;;;;8.13;7.30;;;20.00;99.90;19.80;100992;;;;553292;255;24155;-80
2022/08/25 03:59:10;;;;;;;15.00;8.13;;;20.00;99.90;19.80;101002;;;;553394;255;24152;-80
2022/08/25 04:01:37;;;;;;;13.47;7.70;;;20.00;99.90;19.80;101002;;;;553295;255;24174;-81
2022/08/25 04:04:05;;;;;;;16.30;8.33;;;20.00;99.90;19.80;101010;;;;553417;255;24164;-81
2022/08/25 04:06:33;;;;;;;12.47;8.23;;;20.00;99.90;19.80;101003;;;;553349;255;24153;-79
2022/08/25 04:09:01;;;;;;;11.70;8.30;;;20.00;99.90;19.80;101006;;;;553367;255;24130;-80
2022/08/25 04:11:33;;;;;;;14.17;7.57;;;20.00;99.90;19.80;101008;;;;553348;255;24138;-79
2022/08/25 04:14:01;;;;;;;12.03;7.23;;;20.00;99.90;19.90;101003;;;;553239;255;23160;-80
2022/08/25 04:16:25;;;;;;;12.40;7.73;;;20.10;99.90;20.00;101010;;;;552886;255;24183;-80
2022/08/25 04:18:56;;;;;;;9.50;7.43;;;20.20;99.90;20.00;101009;;;;553057;255;24163;-80
2022/08/25 04:21:21;;;;;;;13.67;7.87;;;20.20;99.90;20.10;101003;;;;561130;255;24159;-80
2022/08/25 04:23:52;;;;;;;13.40;7.00;;;20.30;99.90;20.10;101004;;;;553150;255;24174;-80
2022/08/25 04:26:29;;;;;;;13.50;8.33;;;20.40;99.90;20.20;101005;;;;552878;255;24145;-80
2022/08/25 04:28:56;;;;;;;14.13;7.90;;;20.50;99.90;20.30;101007;;;;552605;255;24180;-81
2022/08/25 04:31:24;;;;;;;10.27;7.83;;;20.50;99.90;20.30;101009;;;;552755;255;24195;-80
2022/08/25 04:33:52;;;;;;;13.00;8.40;;;20.60;99.90;20.40;101014;;;;547888;255;35653;-80
2022/08/25 04:36:20;;;;;;;14.07;7.67;;;20.70;99.90;20.40;100995;;;;552692;255;24300;-80
2022/08/25 04:38:48;;;;;;;10.67;6.57;;;20.80;99.90;20.50;101007;;;;552357;255;23271;-81
2022/08/25 04:41:16;;;;;;;14.27;7.30;;;20.80;99.90;20.60;100998;;;;552751;255;24166;-81
2022/08/25 04:43:44;;;;;;;13.20;6.80;;;20.90;99.90;20.60;101002;;;;552565;255;24148;-80
2022/08/25 04:46:12;;;;;;;9.40;6.90;;;20.90;99.90;20.60;101001;;;;552399;255;24137;-82
2022/08/25 04:48:40;;;;;;;10.77;6.77;;;20.90;99.90;20.70;100992;;;;554328;255;24159;-81
2022/08/25 04:51:08;;;;;;;8.10;6.27;;;21.00;99.90;20.80;100985;;;;561710;251;23168;-81
2022/08/25 04:53:36;;;;;;;12.07;6.13;;;21.10;99.90;20.80;100982;;;;553631;255;23165;-81
2022/08/25 04:56:06;;;;;;;11.67;6.63;;;21.10;99.90;20.80;100987;;;;562075;251;23171;-81
2022/08/25 04:58:34;;;;;;;9.23;5.93;;;21.20;99.90;20.90;100982;;;;553203;255;24194;-80
2022/08/25 05:01:11;;;;;;;12.00;5.97;;;21.30;99.90;21.10;100986;;;;553609;255;24141;-80
2022/08/25 05:03:39;;;;;;;13.20;6.27;;;21.40;99.90;21.40;100985;;;;553441;255;24238;-80
2022/08/25 05:06:07;;;;;;;10.80;5.97;;;21.70;99.90;21.60;100984;;;;553221;255;24174;-81
2022/08/25 05:08:35;;;;;;;12.13;5.93;;;21.90;99.90;21.80;100967;;;;552672;255;24125;-81
2022/08/25 05:11:06;;;;;;;9.47;5.30;;;22.10;99.90;22.40;100982;;;;553001;255;24170;-81
2022/08/25 05:13:33;;;;;;;9.77;5.00;;;22.60;99.90;23.20;100981;;;;555041;255;24167;-79
2022/08/25 05:16:01;;;;;;;10.00;5.07;;;23.40;99.90;23.60;100969;;;;553098;255;24139;-80
2022/08/25 05:18:32;;;;;;;7.77;4.87;;;23.90;99.90;24.00;100965;;;;552843;255;23214;-79
2022/08/25 05:20:57;;;;;;;16.10;5.27;;;24.20;99.90;24.20;100976;;;;553238;255;24139;-80
2022/08/25 05:23:26;;;;;;;8.53;4.33;;;24.80;99.90;24.60;100974;;;;552753;255;24152;-80
2022/08/25 05:25:57;;;;;;;5.03;3.43;;;24.80;99.90;25.50;100966;;;;552873;255;24151;-80
2022/08/25 05:28:25;;;;;;;6.30;3.37;;;25.60;99.90;26.40;100974;;;;552858;255;23168;-80
2022/08/25 05:30:50;;;;;;;11.70;4.03;;;26.50;99.90;27.10;100980;;;;552116;255;23201;-80
2022/08/25 05:33:19;;;;;;;7.83;3.50;;;27.30;99.90;26.90;100978;;;;553116;255;24161;-80
2022/08/25 05:35:46;;;;;;;8.37;4.37;;;27.30;99.90;26.40;100977;;;;553143;255;23167;-80
2022/08/25 05:38:14;;;;;;;9.83;4.00;;;27.00;99.90;26.10;100973;;;;553077;255;23215;-80
2022/08/25 05:40:42;;;;;;;10.90;4.10;;;26.60;99.90;26.00;100966;;;;553069;255;23168;-80
2022/08/25 05:43:13;;;;;;;11.57;4.30;;;26.40;99.90;26.00;100970;;;;553090;255;23209;-81
2022/08/25 05:45:39;;;;;;;6.93;3.90;;;26.30;99.90;26.60;100971;;;;552664;255;24176;-80
2022/08/25 05:48:06;;;;;;;12.73;4.20;;;26.80;99.90;27.00;100977;;;;553095;255;23239;-80
2022/08/25 05:50:34;;;;;;;9.57;3.50;;;27.20;99.90;26.70;100977;;;;553026;255;23172;-80
2022/08/25 05:53:02;;;;;;;5.97;3.63;;;27.10;99.90;26.30;100969;;;;553110;255;24183;-80
2022/08/25 05:55:30;;;;;;;9.95;4.57;;;26.80;99.90;26.00;100969;;;;548315;255;35729;-81
2022/08/25 05:57:58;;;;;;;8.23;3.73;;;26.50;99.90;25.80;100981;;;;552819;255;23173;-80
2022/08/25 06:00:26;;;;;;;12.70;4.77;;;26.30;99.90;25.60;100978;;;;552691;255;23150;-81
2022/08/25 06:02:54;;;;;;;12.47;3.83;;;26.00;99.90;25.70;100980;;;;553733;254;23146;-82
2022/08/25 06:05:21;;;;;;;8.43;3.63;;;26.00;99.90;25.90;100987;;;;553773;255;23149;-80
2022/08/25 06:07:49;;;;;;;7.00;3.90;;;26.10;99.90;26.00;100985;;;;553449;255;23168;-80
2022/08/25 06:10:19;;;;;;;9.20;4.37;;;26.50;99.90;26.30;100987;;;;553543;255;23149;-80
2022/08/25 06:12:50;;;;;;;8.77;3.67;;;26.70;99.90;26.50;100993;;;;553176;255;24170;-82
2022/08/25 06:15:15;;;;;;;7.77;3.63;;;26.70;99.90;26.90;100996;;;;552970;255;23196;-79
2022/08/25 06:17:43;;;;;;;8.80;4.07;;;27.10;99.90;27.50;100995;;;;555496;255;24160;-79
2022/08/25 06:20:11;;;;;;;10.17;4.47;;;27.60;99.90;27.90;100986;;;;553462;255;23180;-78
2022/08/25 06:22:39;;;;;;;12.50;3.83;;;28.10;99.90;28.20;100990;;;;553118;255;23212;-78
2022/08/25 06:25:09;;;;;;;13.63;4.07;;;28.50;99.90;28.70;101007;;;;552834;255;23169;-78
2022/08/25 06:27:34;;;;;;;12.20;4.67;;;28.90;99.90;28.70;100997;;;;553248;255;23159;-79
2022/08/25 06:30:03;;;;;;;11.80;4.20;;;29.00;99.90;29.00;101003;;;;553232;255;23156;-79
2022/08/25 06:32:34;;;;;;;4.33;3.73;;;29.20;99.90;28.60;101001;;;;561458;252;24181;-79
2022/08/25 06:34:59;;;;;;;8.77;4.30;;;29.00;99.90;28.20;101002;;;;552890;255;24152;-79
2022/08/25 06:37:27;;;;;;;8.97;3.83;;;28.60;99.90;28.00;100999;;;;553251;255;23223;-79
2022/08/25 06:39:55;;;;;;;9.43;3.90;;;28.40;99.90;28.30;100997;;;;553192;255;23144;-80
2022/08/25 06:42:23;;;;;;;8.10;4.15;;;28.50;99.90;29.00;100996;;;;553134;255;23159;-79
2022/08/25 06:44:52;;;;;;;11.48;3.90;;;29.30;99.90;29.10;101008;;;;552888;255;23200;-79
2022/08/25 06:47:20;;;;;;;9.10;4.40;;;29.50;99.90;29.20;101009;;;;552766;255;23158;-79
2022/08/25 06:49:49;;;;;;;13.50;4.12;;;30.10;99.90;30.10;101013;;;;552929;255;24218;-79
2022/08/25 06:52:18;;;;;;;9.38;4.22;;;30.70;99.90;30.60;101010;;;;552825;255;23153;-80
2022/08/25 06:54:46;;;;;;;11.77;3.92;;;30.70;99.90;30.50;101020;;;;552714;255;23316;-78
2022/08/25 06:57:14;;;;;;;11.48;4.47;;;30.80;99.90;29.50;101017;;;;553141;255;23235;-79
2022/08/25 06:59:41;;;;;;;11.52;4.32;;;30.20;99.90;28.90;101012;;;;553250;255;23203;-82
2022/08/25 07:02:09;;;;;;;11.07;4.12;;;29.60;99.90;28.50;101023;;;;553554;255;24226;-81
2022/08/25 07:04:37;;;;;;;11.50;4.85;;;29.10;99.90;28.40;101026;;;;553146;255;24183;-81
2022/08/25 07:07:05;;;;;;;15.43;5.10;;;28.80;99.90;28.60;101029;;;;553136;255;23247;-81
2022/08/25 07:09:33;;;;;;;20.42;5.00;;;28.80;99.90;29.50;101031;;;;553268;255;23200;-82
2022/08/25 07:12:03;;;;;;;8.85;4.53;;;29.50;99.90;29.90;101031;;;;553593;255;23149;-80
2022/08/25 07:14:29;;;;;;;11.65;4.40;;;29.90;99.90;30.70;101036;;;;554063;254;23155;-80
2022/08/25 07:16:57;;;;;;;11.55;4.35;;;30.70;99.90;31.60;101038;;;;554123;255;23144;-80
2022/08/25 07:19:25;;;;;;;11.35;3.92;;;31.60;99.90;32.50;101050;;;;553840;255;23145;-79
2022/08/25 07:21:53;;;;;;;14.20;5.35;;;32.60;99.90;33.00;101048;;;;553868;255;23195;-79
2022/08/25 07:24:21;;;;;;;11.43;4.30;;;33.20;99.90;32.30;101049;;;;553582;255;23314;-80
2022/08/25 07:26:51;;;;;;;9.60;4.65;;;33.10;99.90;31.70;101059;;;;553765;255;23168;-79
2022/08/25 07:29:16;;;;;;;14.60;5.15;;;32.50;99.90;30.90;101068;;;;562107;252;23160;-80
2022/08/25 07:31:44;;;;;;;15.82;4.75;;;31.90;99.90;30.00;101062;;;;553705;255;23162;-82
2022/08/25 07:36:58;;;;;;;9.85;4.70;;;30.20;99.90;29.00;101062;;;;554115;255;23159;-80
2022/08/25 07:39:26;;;;;;;10.02;4.82;;;29.60;99.90;29.00;101061;;;;554271;255;24144;-80
2022/08/25 07:41:54;;;;;;;11.00;4.50;;;29.40;99.90;28.90;101065;;;;554493;255;23136;-81
2022/08/25 07:44:22;;;;;;;10.02;5.30;;;29.30;99.90;28.30;101070;;;;554099;255;23178;-79
2022/08/25 07:46:50;;;;;;;18.17;5.70;;;29.00;99.90;27.60;101072;;;;554071;255;23255;-81
2022/08/25 07:49:18;;;;;;;11.77;5.17;;;28.40;99.90;27.00;101075;;;;553423;255;23261;-82
2022/08/25 07:51:46;;;;;;;10.93;4.57;;;27.70;99.90;26.50;101073;;;;553041;255;23153;-82
2022/08/25 07:54:14;;;;;;;9.17;4.90;;;27.20;99.90;26.30;101071;;;;561136;255;23182;-82
2022/08/25 07:56:42;;;;;;;11.63;5.60;;;26.80;99.90;26.20;101078;;;;553150;255;23167;-81
2022/08/25 07:59:09;;;;;;;25.33;6.60;;;26.60;99.90;26.10;101082;;;;552963;255;24142;-82
2022/08/25 08:01:37;;;;;;;13.00;5.27;;;26.40;99.90;25.90;101085;;;;552745;255;23168;-81
2022/08/25 08:04:05;;;;;;;10.50;5.50;;;26.30;99.90;25.80;101092;;;;553096;255;23162;-81
2022/08/25 08:06:33;;;;;;;19.97;5.43;;;26.20;99.90;25.70;101094;;;;553123;255;23301;-82
2022/08/25 08:09:01;;;;;;;10.97;5.60;;;26.10;99.90;25.60;101094;;;;553055;255;24135;-81
2022/08/25 08:11:39;;;;;;;15.82;7.12;;;26.00;99.90;25.60;101092;;;;548227;255;35778;-81
2022/08/25 08:14:02;;;;;;;25.60;6.70;;;26.00;99.90;25.60;101096;;;;553165;255;23247;-81
2022/08/25 08:16:31;;;;;;;17.27;6.63;;;26.00;99.90;25.60;101091;;;;561218;255;23165;-79
2022/08/25 08:18:58;;;;;;;12.53;6.60;;;26.00;99.90;25.40;101092;;;;552992;255;24230;-81
2022/08/25 08:21:26;;;;;;;10.80;8.33;;;25.80;99.90;25.30;101088;;;;561312;253;24175;-80
2022/08/25 08:23:54;;;;;;;16.87;6.77;;;25.70;99.90;25.30;101087;;;;552981;255;23208;-80
2022/08/25 08:26:22;;;;;;;13.67;6.50;;;25.70;99.90;25.50;101088;;;;553918;254;23177;-79
2022/08/25 08:28:50;;;;;;;10.63;6.13;;;25.90;99.90;25.80;101086;;;;554219;255;23158;-81
2022/08/25 08:31:18;;;;;;;20.93;7.40;;;26.10;99.90;25.80;101085;;;;562640;252;24211;-79
2022/08/25 08:33:46;;;;;;;14.23;7.17;;;26.10;99.90;25.50;101081;;;;553473;255;24157;-80
2022/08/25 08:36:17;;;;;;;12.57;7.37;;;26.00;99.90;25.20;101077;;;;552746;255;23219;-79
2022/08/25 08:38:42;;;;;;;14.40;7.73;;;25.70;99.90;24.90;101070;;;;562486;255;24217;-81
2022/08/25 08:44:25;;;;;;;16.53;8.70;;;25.10;99.90;24.30;101074;;;;553444;255;23141;-82
2022/08/25 08:47:09;;;;;;;16.30;9.03;;;24.80;99.90;24.00;101076;;;;552934;255;23186;-80
2022/08/25 08:50:03;;;;;;;24.60;9.33;;;24.50;99.90;23.80;101075;;;;553019;255;24245;-80
2022/08/25 08:52:40;;;;;;;24.03;11.03;;;24.20;99.90;23.40;101074;;;;553228;255;24161;-80
2022/08/25 08:55:08;;;;;;;21.90;13.67;;;23.90;99.90;23.20;101074;;;;562993;250;23173;-79
2022/08/25 08:57:36;;;;;;;14.40;9.43;;;23.60;99.90;23.10;101069;;;;552045;255;24144;-79
2022/08/25 09:00:04;;;;;;;16.47;10.27;;;23.40;99.90;23.00;101066;;;;552810;255;24150;-80
2022/08/25 09:02:41;;;;;;;17.30;10.80;;;23.30;99.90;22.90;101067;;;;553037;255;23160;-81
2022/08/25 09:05:08;;;;;;;21.30;10.50;;;23.20;99.90;22.80;101062;;;;545479;255;24143;-80
2022/08/25 09:07:39;;;;;;;20.10;12.80;;;22.90;99.90;22.60;101063;;;;552815;255;24139;-80
2022/08/25 09:10:07;;;;;;;21.60;12.33;;;22.90;99.90;22.50;101062;;;;560194;252;24165;-80
2022/08/25 09:12:35;;;;;;;36.30;20.57;;;22.80;99.90;22.40;101068;;;;553113;255;24190;-79
2022/08/25 09:16:53;;;;;;;19.10;12.33;;;22.70;99.90;22.30;101063;;;;552827;255;24139;-80
2022/08/25 09:18:10;;;;;;;21.17;11.57;;;22.60;99.90;22.20;101054;;;;553072;255;24161;-80
2022/08/25 09:20:44;;;;;;;20.27;11.30;;;22.50;99.90;22.20;101052;;;;553012;255;24158;-81
2022/08/25 09:23:34;;;;;;;24.23;12.40;;;22.50;99.90;22.20;101048;;;;551668;255;24139;-82
2022/08/25 09:26:34;;;;;;;21.63;11.77;;;22.50;99.90;22.20;101047;;;;552810;251;24232;-82
2022/08/25 09:29:11;;;;;;;25.47;12.20;;;22.50;99.90;22.10;101031;;;;552878;255;24141;-81
2022/08/25 09:31:43;;;;;;;26.03;12.40;;;22.40;99.90;22.20;101037;;;;551081;255;23189;-79
2022/08/25 09:34:16;;;;;;;18.80;12.20;;;22.50;99.90;22.20;101029;;;;552389;255;24158;-80
2022/08/25 09:36:44;;;;;;;18.93;12.80;;;22.50;99.90;22.20;101030;;;;553116;254;24205;-80
2022/08/25 09:39:12;;;;;;;20.97;12.73;;;22.50;99.90;22.30;101028;;;;553986;255;24149;-80
2022/08/25 09:41:48;;;;;;;20.10;12.90;;;22.60;99.90;22.30;101025;;;;553690;255;24140;-78
2022/08/25 09:44:20;;;;;;;28.30;13.00;;;22.60;99.90;22.30;101016;;;;553456;255;24265;-78
2022/08/25 09:47:04;;;;;;;26.90;14.77;;;22.70;99.90;22.40;101011;;;;548690;255;35729;-80
2022/08/25 09:49:38;;;;;;;16.90;11.90;;;22.70;99.90;22.50;101007;;;;551711;255;24132;-81
2022/08/25 09:52:39;;;;;;;23.47;12.17;;;22.80;99.90;22.60;101003;;;;552848;252;24239;-81
2022/08/25 09:55:13;;;;;;;16.73;12.57;;;22.80;99.90;22.70;101000;;;;553036;255;24178;-80
2022/08/25 09:57:47;;;;;;;25.80;12.60;;;22.90;99.90;22.80;100994;;;;553341;255;24154;-80
2022/08/25 10:00:18;;;;;;;24.03;12.13;;;23.10;99.90;22.90;100992;;;;552892;255;24272;-80
2022/08/25 10:02:46;;;;;;;26.10;11.97;;;23.20;99.90;23.10;100989;;;;553089;255;24167;-79
2022/08/25 10:05:23;;;;;;;24.67;12.20;;;23.40;99.90;23.30;100994;;;;551229;255;24148;-80
2022/08/25 10:08:04;;;;;;;18.33;12.30;;;23.60;99.90;23.30;100992;;;;553221;255;24198;-80
2022/08/25 10:10:27;;;;;;;21.83;12.03;;;23.70;99.90;23.40;100987;;;;560506;252;24160;-81
2022/08/25 10:12:59;;;;;;;26.07;13.53;;;23.80;99.90;23.60;100990;;;;552334;255;24186;-80
2022/08/25 10:15:29;;;;;;;23.40;12.83;;;23.90;99.90;23.60;100985;;;;552366;255;24195;-78
2022/08/25 10:18:24;;;;;;;26.55;14.23;;;24.00;99.90;24.00;100980;;;;547774;255;35708;-80
2022/08/25 10:21:07;;;;;;;24.03;12.23;;;24.30;99.90;24.40;100966;;;;552445;255;24195;-81
2022/08/25 10:23:39;;;;;;;20.80;13.10;;;24.70;99.90;24.50;100957;;;;552144;255;23197;-80
2022/08/25 10:26:06;;;;;;;19.90;12.17;;;24.80;99.90;24.60;100952;;;;551842;255;24199;-81
2022/08/25 10:28:55;;;;;;;37.43;12.83;;;25.00;99.90;24.70;100939;;;;552138;255;24149;-81
2022/08/25 10:31:40;;;;;;;29.77;12.07;;;25.00;99.90;24.70;100930;;;;560601;255;24191;-81
2022/08/25 10:34:38;;;;;;;26.80;11.63;;;25.10;99.90;25.00;100937;;;;551757;255;24176;-81
2022/08/25 10:37:12;;;;;;;24.93;10.97;;;25.30;99.90;25.40;100943;;;;552505;255;24140;-80
2022/08/25 10:39:52;;;;;;;21.70;10.90;;;25.60;99.90;25.60;100944;;;;560860;252;23153;-80
2022/08/25 10:42:39;;;;;;;25.13;9.60;;;26.00;99.90;25.60;100948;;;;561025;255;23256;-80
2022/08/25 10:48:15;;;;;;;28.67;9.90;;;26.00;99.90;25.80;100953;;;;553161;253;23182;-80
2022/08/25 10:50:54;;;;;;;21.20;9.37;;;26.10;99.90;25.90;100955;;;;554065;255;24157;-80
2022/08/25 10:53:28;;;;;;;18.93;9.43;;;26.20;99.90;26.10;100952;;;;553641;255;23145;-80
2022/08/25 10:56:11;;;;;;;18.27;9.20;;;26.40;99.90;26.50;100945;;;;553655;254;23181;-79
2022/08/25 10:58:53;;;;;;;19.93;10.33;;;26.70;99.90;26.70;100959;;;;552865;255;23194;-80
2022/08/25 11:02:01;;;;;;;22.53;8.53;;;27.00;99.90;26.80;100953;;;;552718;255;24173;-81
2022/08/25 11:04:44;;;;;;;20.67;9.47;;;27.20;99.90;27.10;100956;;;;553445;255;23157;-80
2022/08/25 11:07:20;;;;;;;25.00;8.47;;;27.50;99.90;27.30;100957;;;;553045;255;24300;-79
2022/08/25 11:09:48;;;;;;;42.63;8.97;;;27.70;99.90;27.20;100965;;;;552378;255;23239;-81
2022/08/25 11:12:26;;;;;;;25.03;8.70;;;27.40;99.90;27.10;100962;;;;552858;255;23161;-79
2022/08/25 11:14:56;;;;;;;33.43;9.00;;;27.40;99.90;26.90;100962;;;;552634;255;23175;-80
2022/08/25 11:17:39;;;;;;;23.33;8.83;;;27.20;99.90;26.80;100961;;;;552876;255;24236;-80
2022/08/25 11:20:07;;;;;;;23.30;8.33;;;27.20;99.90;26.90;100962;;;;560952;255;23204;-78
2022/08/25 11:22:50;;;;;;;27.70;8.37;;;27.20;99.90;27.00;100960;;;;552436;255;23212;-82
2022/08/25 11:25:24;;;;;;;23.30;7.50;;;27.30;99.90;27.10;100956;;;;552528;255;23225;-82